createdAt,value
2023-04-07T00:00:28.489Z,17.77
2023-04-07T00:01:25.157Z,17.80
2023-04-07T00:02:22.293Z,18.50
2023-04-07T00:03:19.217Z,18.23
2023-04-07T00:04:16.436Z,17.30
2023-04-07T00:05:13.200Z,16.85
2023-04-07T00:06:10.279Z,18.42
2023-04-07T00:07:07.202Z,18.27
2023-04-07T00:08:03.871Z,16.95
2023-04-07T00:09:01.012Z,17.10
2023-04-07T00:09:57.642Z,18.00
2023-04-07T00:10:54.254Z,17.35
2023-04-07T00:11:51.841Z,17.95
2023-04-07T00:12:48.434Z,17.67
2023-04-07T00:13:45.004Z,18.67
2023-04-07T00:14:41.684Z,18.75
2023-04-07T00:15:38.414Z,19.10
2023-04-07T00:16:35.140Z,18.55
2023-04-07T00:17:31.860Z,18.27
2023-04-07T00:18:28.535Z,18.65
2023-04-07T00:19:25.273Z,18.77
2023-04-07T00:20:22.089Z,19.40
2023-04-07T00:21:18.681Z,19.10
2023-04-07T00:22:15.526Z,18.75
2023-04-07T00:23:12.165Z,19.35
2023-04-07T00:24:08.950Z,19.08
2023-04-07T00:25:06.099Z,17.05
2023-04-07T00:26:02.727Z,18.92
2023-04-07T00:26:59.291Z,18.65
2023-04-07T00:27:55.887Z,18.05
2023-04-07T00:28:52.520Z,17.40
2023-04-07T00:29:49.182Z,18.75
2023-04-07T00:30:45.994Z,17.63
2023-04-07T00:31:42.610Z,16.95
2023-04-07T00:32:39.303Z,17.80
2023-04-07T00:33:35.958Z,17.70
2023-04-07T00:34:32.522Z,18.35
2023-04-07T00:35:29.190Z,17.92
2023-04-07T00:36:27.161Z,18.50
2023-04-07T00:37:25.609Z,18.10
2023-04-07T00:38:22.306Z,17.45
2023-04-07T00:39:19.997Z,17.33
2023-04-07T00:40:17.471Z,17.50
2023-04-07T00:41:14.170Z,16.98
2023-04-07T00:42:11.020Z,18.58
2023-04-07T00:43:07.564Z,17.00
2023-04-07T00:44:04.311Z,16.88
2023-04-07T00:45:01.233Z,16.80
2023-04-07T00:45:57.913Z,16.95
2023-04-07T00:46:54.634Z,17.17
2023-04-07T00:47:51.404Z,17.33
2023-04-07T00:48:48.166Z,17.58
2023-04-07T00:49:44.892Z,17.75
2023-04-07T00:50:41.750Z,17.08
2023-04-07T00:51:38.404Z,18.13
2023-04-07T00:52:35.939Z,17.77
2023-04-07T00:53:32.608Z,17.00
2023-04-07T00:54:30.834Z,17.27
2023-04-07T00:55:27.489Z,16.27
2023-04-07T00:56:24.095Z,15.98
2023-04-07T00:57:20.809Z,16.15
2023-04-07T00:58:17.458Z,17.05
2023-04-07T00:59:14.422Z,16.05
2023-04-07T01:00:11.378Z,16.35
2023-04-07T01:01:13.642Z,16.73
2023-04-07T01:02:22.786Z,16.98
2023-04-07T01:03:27.314Z,16.58
2023-04-07T01:04:37.760Z,16.30
2023-04-07T01:06:02.628Z,15.57
2023-04-07T01:07:21.228Z,15.63
2023-04-07T01:08:24.352Z,15.25
2023-04-07T01:09:25.577Z,16.67
2023-04-07T01:10:53.008Z,16.85
2023-04-07T01:11:58.638Z,15.38
2023-04-07T01:13:22.412Z,15.95
2023-04-07T01:14:20.592Z,15.35
2023-04-07T01:15:21.637Z,15.55
2023-04-07T01:16:26.675Z,15.70
2023-04-07T01:17:27.093Z,15.75
2023-04-07T01:18:33.764Z,15.85
2023-04-07T01:19:56.334Z,15.38
2023-04-07T01:20:56.599Z,16.83
2023-04-07T01:21:55.957Z,16.13
2023-04-07T01:22:57.986Z,16.40
2023-04-07T01:24:00.628Z,16.67
2023-04-07T01:25:25.237Z,15.63
2023-04-07T01:26:33.648Z,15.93
2023-04-07T01:28:00.877Z,15.25
2023-04-07T01:29:16.054Z,16.00
2023-04-07T01:30:16.204Z,14.75
2023-04-07T01:31:15.779Z,16.08
2023-04-07T01:32:12.738Z,16.00
2023-04-07T01:33:11.292Z,16.20
2023-04-07T01:34:12.731Z,15.98
2023-04-07T01:35:13.765Z,11.90
2023-04-07T01:36:12.142Z,15.85
2023-04-07T01:37:09.864Z,16.10
2023-04-07T01:38:07.303Z,16.77
2023-04-07T01:39:04.412Z,16.98
2023-04-07T01:40:01.234Z,16.13
2023-04-07T01:40:59.555Z,17.10
2023-04-07T01:41:58.082Z,15.68
2023-04-07T01:42:57.452Z,16.50
2023-04-07T01:43:55.709Z,16.45
2023-04-07T01:44:54.012Z,16.45
2023-04-07T01:45:51.533Z,16.63
2023-04-07T01:46:51.337Z,16.55
2023-04-07T01:47:49.568Z,15.80
2023-04-07T01:48:48.172Z,17.50
2023-04-07T01:49:46.908Z,16.15
2023-04-07T01:50:44.190Z,15.82
2023-04-07T01:51:42.444Z,16.30
2023-04-07T01:52:40.220Z,15.48
2023-04-07T01:53:38.622Z,15.90
2023-04-07T01:54:35.817Z,16.20
2023-04-07T01:55:32.914Z,15.60
2023-04-07T01:56:29.686Z,16.05
2023-04-07T01:57:26.405Z,15.45
2023-04-07T01:58:23.004Z,15.68
2023-04-07T01:59:19.826Z,16.52
2023-04-07T02:00:16.637Z,15.95
2023-04-07T02:01:14.429Z,15.85
2023-04-07T02:02:11.353Z,14.85
2023-04-07T02:03:23.497Z,14.90
2023-04-07T02:04:32.511Z,15.93
2023-04-07T02:05:30.569Z,14.43
2023-04-07T02:06:36.585Z,14.55
2023-04-07T02:07:58.169Z,15.10
2023-04-07T02:08:59.381Z,14.35
2023-04-07T02:10:01.455Z,15.13
2023-04-07T02:11:00.797Z,16.05
2023-04-07T02:12:00.084Z,15.82
2023-04-07T02:12:58.741Z,15.20
2023-04-07T02:13:56.986Z,15.20
2023-04-07T02:14:55.279Z,16.35
2023-04-07T02:15:53.590Z,14.82
2023-04-07T02:16:51.800Z,16.10
2023-04-07T02:17:51.954Z,15.57
2023-04-07T02:18:49.498Z,16.00
2023-04-07T02:19:47.055Z,14.40
2023-04-07T02:20:45.240Z,14.30
2023-04-07T02:21:42.385Z,15.45
2023-04-07T02:22:39.820Z,15.20
2023-04-07T02:23:36.448Z,14.68
2023-04-07T02:24:33.125Z,14.30
2023-04-07T02:25:31.888Z,14.18
2023-04-07T02:26:29.319Z,14.57
2023-04-07T02:27:27.082Z,13.73
2023-04-07T02:28:24.201Z,15.02
2023-04-07T02:29:21.057Z,13.13
2023-04-07T02:30:17.677Z,14.27
2023-04-07T02:31:14.382Z,14.13
2023-04-07T02:32:11.176Z,13.98
2023-04-07T02:33:07.843Z,14.13
2023-04-07T02:34:04.581Z,13.77
2023-04-07T02:35:01.392Z,13.65
2023-04-07T02:35:57.963Z,14.07
2023-04-07T02:36:54.598Z,14.23
2023-04-07T02:37:51.511Z,13.98
2023-04-07T02:38:48.146Z,13.63
2023-04-07T02:39:44.718Z,13.25
2023-04-07T02:40:41.638Z,14.05
2023-04-07T02:41:38.322Z,13.32
2023-04-07T02:42:36.699Z,14.20
2023-04-07T02:43:33.319Z,13.05
2023-04-07T02:44:30.117Z,13.02
2023-04-07T02:45:26.736Z,14.10
2023-04-07T02:46:23.507Z,12.93
2023-04-07T02:47:20.610Z,14.45
2023-04-07T02:48:17.359Z,14.02
2023-04-07T02:49:13.936Z,13.55
2023-04-07T02:50:10.891Z,14.35
2023-04-07T02:51:07.539Z,14.05
2023-04-07T02:52:04.330Z,14.05
2023-04-07T02:53:00.934Z,13.15
2023-04-07T02:53:57.708Z,14.57
2023-04-07T02:54:54.698Z,13.48
2023-04-07T02:55:51.479Z,14.52
2023-04-07T02:56:48.054Z,13.40
2023-04-07T02:57:44.658Z,13.40
2023-04-07T02:58:41.316Z,14.05
2023-04-07T02:59:37.907Z,14.20
2023-04-07T03:00:34.793Z,13.52
2023-04-07T03:01:31.606Z,14.25
2023-04-07T03:02:28.478Z,13.38
2023-04-07T03:03:25.663Z,13.43
2023-04-07T03:04:22.869Z,14.52
2023-04-07T03:05:19.673Z,14.45
2023-04-07T03:06:16.304Z,13.60
2023-04-07T03:07:12.916Z,14.93
2023-04-07T03:08:10.499Z,14.35
2023-04-07T03:09:09.021Z,14.32
2023-04-07T03:10:06.269Z,13.95
2023-04-07T03:11:02.944Z,14.98
2023-04-07T03:11:59.744Z,13.98
2023-04-07T03:12:57.199Z,15.48
2023-04-07T03:13:53.993Z,14.13
2023-04-07T03:14:50.664Z,13.38
2023-04-07T03:15:47.422Z,13.20
2023-04-07T03:16:44.125Z,13.43
2023-04-07T03:17:40.921Z,13.27
2023-04-07T03:18:37.562Z,13.35
2023-04-07T03:19:34.178Z,13.80
2023-04-07T03:20:31.069Z,13.40
2023-04-07T03:21:29.071Z,13.38
2023-04-07T03:22:25.672Z,13.30
2023-04-07T03:23:24.046Z,13.40
2023-04-07T03:24:20.767Z,12.90
2023-04-07T03:25:17.674Z,13.55
2023-04-07T03:26:14.306Z,12.98
2023-04-07T03:27:11.142Z,13.07
2023-04-07T03:28:07.724Z,13.38
2023-04-07T03:29:04.381Z,13.40
2023-04-07T03:30:00.976Z,12.65
2023-04-07T03:30:57.587Z,12.52
2023-04-07T03:31:54.240Z,12.50
2023-04-07T03:32:51.072Z,12.90
2023-04-07T03:33:47.693Z,13.25
2023-04-07T03:34:44.343Z,12.38
2023-04-07T03:35:41.222Z,12.10
2023-04-07T03:36:37.891Z,12.85
2023-04-07T03:37:34.456Z,12.32
2023-04-07T03:38:31.286Z,14.05
2023-04-07T03:39:27.928Z,13.55
2023-04-07T03:40:26.825Z,11.52
2023-04-07T03:41:23.618Z,13.07
2023-04-07T03:42:20.226Z,12.00
2023-04-07T03:43:16.795Z,12.35
2023-04-07T03:44:13.431Z,12.45
2023-04-07T03:45:10.512Z,12.65
2023-04-07T03:46:07.870Z,11.93
2023-04-07T03:47:04.576Z,12.38
2023-04-07T03:48:01.571Z,12.70
2023-04-07T03:48:58.227Z,11.95
2023-04-07T03:49:54.866Z,11.65
2023-04-07T03:50:51.465Z,11.85
2023-04-07T03:51:48.031Z,11.45
2023-04-07T03:52:44.655Z,11.73
2023-04-07T03:53:41.426Z,11.50
2023-04-07T03:54:37.981Z,13.68
2023-04-07T03:55:35.309Z,13.02
2023-04-07T03:56:32.096Z,12.52
2023-04-07T03:57:28.703Z,10.73
2023-04-07T03:58:25.384Z,12.63
2023-04-07T03:59:22.049Z,11.60
2023-04-07T04:00:18.923Z,12.18
2023-04-07T04:01:16.111Z,12.32
2023-04-07T04:02:12.901Z,11.02
2023-04-07T04:03:10.239Z,11.95
2023-04-07T04:04:07.222Z,11.02
2023-04-07T04:05:04.221Z,12.40
2023-04-07T04:06:00.821Z,11.63
2023-04-07T04:06:57.430Z,11.55
2023-04-07T04:07:54.101Z,11.88
2023-04-07T04:08:50.658Z,11.25
2023-04-07T04:09:47.253Z,11.68
2023-04-07T04:10:43.857Z,12.02
2023-04-07T04:11:40.569Z,11.13
2023-04-07T04:12:37.280Z,11.80
2023-04-07T04:13:33.845Z,11.55
2023-04-07T04:14:30.469Z,11.23
2023-04-07T04:15:27.255Z,11.68
2023-04-07T04:16:23.931Z,11.05
2023-04-07T04:17:20.579Z,11.07
2023-04-07T04:18:17.419Z,11.35
2023-04-07T04:19:14.072Z,11.50
2023-04-07T04:20:10.988Z,10.48
2023-04-07T04:21:08.453Z,12.07
2023-04-07T04:22:05.168Z,11.00
2023-04-07T04:23:01.877Z,11.68
2023-04-07T04:23:58.455Z,10.88
2023-04-07T04:24:55.119Z,11.20
2023-04-07T04:25:51.814Z,12.15
2023-04-07T04:26:48.533Z,11.38
2023-04-07T04:27:45.448Z,10.93
2023-04-07T04:28:42.023Z,11.10
2023-04-07T04:29:38.633Z,10.63
2023-04-07T04:30:35.447Z,12.13
2023-04-07T04:31:32.163Z,11.68
2023-04-07T04:32:28.824Z,12.18
2023-04-07T04:33:25.717Z,12.63
2023-04-07T04:34:22.318Z,10.70
2023-04-07T04:35:18.933Z,10.60
2023-04-07T04:36:15.807Z,11.68
2023-04-07T04:37:12.945Z,11.40
2023-04-07T04:38:10.486Z,11.93
2023-04-07T04:39:07.184Z,11.30
2023-04-07T04:40:04.197Z,11.73
2023-04-07T04:41:00.850Z,11.00
2023-04-07T04:41:57.551Z,10.38
2023-04-07T04:42:54.147Z,11.65
2023-04-07T04:43:50.878Z,13.68
2023-04-07T04:44:47.464Z,12.50
2023-04-07T04:45:44.187Z,13.20
2023-04-07T04:46:41.283Z,11.93
2023-04-07T04:47:39.231Z,12.68
2023-04-07T04:48:36.016Z,13.05
2023-04-07T04:49:32.621Z,12.52
2023-04-07T04:50:29.283Z,12.63
2023-04-07T04:51:26.356Z,12.65
2023-04-07T04:52:22.995Z,12.25
2023-04-07T04:53:19.650Z,11.50
2023-04-07T04:54:16.714Z,12.70
2023-04-07T04:55:14.616Z,12.80
2023-04-07T04:56:11.550Z,13.30
2023-04-07T04:57:08.175Z,12.32
2023-04-07T04:58:04.820Z,12.10
2023-04-07T04:59:03.281Z,12.43
2023-04-07T04:59:59.900Z,13.75
2023-04-07T05:01:00.468Z,15.02
2023-04-07T05:01:57.245Z,13.57
2023-04-07T05:02:55.109Z,17.10
2023-04-07T05:03:52.384Z,25.98
2023-04-07T05:04:49.254Z,16.77
2023-04-07T05:05:48.505Z,18.48
2023-04-07T05:06:45.190Z,14.75
2023-04-07T05:07:42.259Z,10.88
2023-04-07T05:08:38.856Z,11.80
2023-04-07T05:09:35.414Z,11.85
2023-04-07T05:10:32.017Z,11.93
2023-04-07T05:11:28.632Z,12.27
2023-04-07T05:12:25.313Z,11.75
2023-04-07T05:13:22.060Z,11.18
2023-04-07T05:14:18.678Z,11.40
2023-04-07T05:15:15.636Z,11.43
2023-04-07T05:16:12.261Z,12.02
2023-04-07T05:17:09.125Z,10.55
2023-04-07T05:18:05.893Z,10.55
2023-04-07T05:19:02.576Z,11.98
2023-04-07T05:19:59.209Z,11.32
2023-04-07T05:20:55.798Z,10.43
2023-04-07T05:21:52.414Z,10.52
2023-04-07T05:22:48.972Z,10.93
2023-04-07T05:23:45.714Z,10.18
2023-04-07T05:24:42.426Z,10.07
2023-04-07T05:25:39.080Z,11.60
2023-04-07T05:26:35.663Z,10.93
2023-04-07T05:27:32.329Z,10.93
2023-04-07T05:28:29.138Z,9.88
2023-04-07T05:29:25.993Z,9.98
2023-04-07T05:30:22.644Z,9.50
2023-04-07T05:31:19.247Z,9.38
2023-04-07T05:32:15.880Z,9.93
2023-04-07T05:33:13.337Z,9.80
2023-04-07T05:34:10.436Z,9.20
2023-04-07T05:35:07.450Z,9.93
2023-04-07T05:36:04.361Z,8.80
2023-04-07T05:37:01.057Z,9.07
2023-04-07T05:37:57.642Z,9.35
2023-04-07T05:38:54.244Z,9.90
2023-04-07T05:39:51.249Z,10.10
2023-04-07T05:40:48.351Z,9.85
2023-04-07T05:41:45.417Z,9.23
2023-04-07T05:42:42.280Z,9.80
2023-04-07T05:43:39.009Z,9.93
2023-04-07T05:44:35.828Z,9.05
2023-04-07T05:45:32.454Z,8.88
2023-04-07T05:46:29.843Z,9.65
2023-04-07T05:47:26.764Z,9.45
2023-04-07T05:48:23.686Z,9.30
2023-04-07T05:49:20.872Z,9.52
2023-04-07T05:50:18.381Z,8.88
2023-04-07T05:51:15.736Z,9.48
2023-04-07T05:52:13.208Z,9.05
2023-04-07T05:53:09.808Z,8.85
2023-04-07T05:54:07.041Z,9.18
2023-04-07T05:55:03.961Z,10.13
2023-04-07T05:56:00.902Z,9.57
2023-04-07T05:56:57.629Z,9.82
2023-04-07T05:57:54.810Z,9.77
2023-04-07T05:58:51.396Z,9.88
2023-04-07T05:59:48.039Z,9.50
2023-04-07T06:00:44.628Z,9.95
2023-04-07T06:01:42.188Z,10.15
2023-04-07T06:02:40.287Z,9.82
2023-04-07T06:03:37.156Z,9.38
2023-04-07T06:04:35.432Z,9.23
2023-04-07T06:05:32.084Z,9.40
2023-04-07T06:06:29.554Z,9.50
2023-04-07T06:07:26.179Z,10.13
2023-04-07T06:08:22.776Z,9.60
2023-04-07T06:09:19.330Z,10.43
2023-04-07T06:10:16.126Z,9.73
2023-04-07T06:11:12.945Z,10.30
2023-04-07T06:12:10.767Z,9.90
2023-04-07T06:13:07.905Z,9.15
2023-04-07T06:14:04.448Z,8.90
2023-04-07T06:15:01.368Z,9.20
2023-04-07T06:15:58.156Z,9.73
2023-04-07T06:16:54.998Z,9.55
2023-04-07T06:17:51.877Z,9.68
2023-04-07T06:18:48.645Z,10.15
2023-04-07T06:19:45.841Z,9.55
2023-04-07T06:20:42.443Z,9.43
2023-04-07T06:21:39.977Z,10.23
2023-04-07T06:22:36.640Z,9.68
2023-04-07T06:23:33.254Z,9.77
2023-04-07T06:24:29.992Z,10.15
2023-04-07T06:25:26.660Z,10.25
2023-04-07T06:26:23.807Z,9.57
2023-04-07T06:27:21.751Z,9.65
2023-04-07T06:28:18.755Z,9.27
2023-04-07T06:29:15.668Z,9.68
2023-04-07T06:30:12.567Z,9.40
2023-04-07T06:31:09.764Z,9.05
2023-04-07T06:32:06.783Z,9.50
2023-04-07T06:33:03.462Z,9.77
2023-04-07T06:34:00.072Z,10.68
2023-04-07T06:34:57.067Z,9.50
2023-04-07T06:35:53.817Z,9.20
2023-04-07T06:36:51.052Z,11.73
2023-04-07T06:37:47.786Z,10.68
2023-04-07T06:38:44.511Z,10.05
2023-04-07T06:39:41.179Z,9.68
2023-04-07T06:40:37.963Z,9.52
2023-04-07T06:41:34.718Z,9.20
2023-04-07T06:42:31.318Z,9.88
2023-04-07T06:43:27.948Z,9.38
2023-04-07T06:44:24.558Z,9.70
2023-04-07T06:45:21.392Z,9.82
2023-04-07T06:46:19.390Z,9.77
2023-04-07T06:47:16.255Z,9.88
2023-04-07T06:48:12.926Z,9.63
2023-04-07T06:49:09.554Z,8.57
2023-04-07T06:50:06.826Z,9.40
2023-04-07T06:51:03.588Z,9.38
2023-04-07T06:52:00.331Z,10.85
2023-04-07T06:52:56.952Z,9.85
2023-04-07T06:53:53.614Z,8.95
2023-04-07T06:54:50.325Z,9.95
2023-04-07T06:55:46.985Z,9.30
2023-04-07T06:56:43.951Z,10.07
2023-04-07T06:57:40.555Z,9.73
2023-04-07T06:58:37.755Z,10.45
2023-04-07T06:59:34.311Z,10.57
2023-04-07T07:00:31.286Z,9.65
2023-04-07T07:01:28.461Z,10.27
2023-04-07T07:02:25.421Z,10.23
2023-04-07T07:03:22.322Z,11.15
2023-04-07T07:04:19.143Z,10.27
2023-04-07T07:05:16.201Z,10.48
2023-04-07T07:06:12.856Z,11.13
2023-04-07T07:07:09.462Z,11.30
2023-04-07T07:08:06.085Z,12.38
2023-04-07T07:09:03.227Z,10.98
2023-04-07T07:09:59.921Z,10.32
2023-04-07T07:10:56.919Z,10.30
2023-04-07T07:11:53.690Z,11.25
2023-04-07T07:12:51.171Z,11.77
2023-04-07T07:13:48.146Z,10.73
2023-04-07T07:14:44.839Z,12.02
2023-04-07T07:15:41.542Z,10.77
2023-04-07T07:16:38.082Z,11.25
2023-04-07T07:17:35.579Z,11.57
2023-04-07T07:18:32.208Z,12.48
2023-04-07T07:19:28.843Z,11.10
2023-04-07T07:20:26.039Z,12.65
2023-04-07T07:21:22.746Z,11.55
2023-04-07T07:22:19.317Z,12.20
2023-04-07T07:23:16.092Z,12.18
2023-04-07T07:24:12.714Z,11.82
2023-04-07T07:25:09.694Z,13.88
2023-04-07T07:26:06.452Z,10.98
2023-04-07T07:27:03.573Z,11.77
2023-04-07T07:28:00.238Z,10.77
2023-04-07T07:28:56.828Z,11.32
2023-04-07T07:29:53.401Z,11.20
2023-04-07T07:30:50.084Z,10.90
2023-04-07T07:31:46.736Z,10.95
2023-04-07T07:32:43.481Z,9.00
2023-04-07T07:33:41.459Z,7.93
2023-04-07T07:34:38.129Z,7.75
2023-04-07T07:35:34.818Z,8.00
2023-04-07T07:36:32.353Z,7.65
2023-04-07T07:37:28.974Z,7.90
2023-04-07T07:38:27.645Z,7.75
2023-04-07T07:39:26.635Z,7.50
2023-04-07T07:40:23.374Z,7.35
2023-04-07T07:41:19.983Z,7.10
2023-04-07T07:42:16.649Z,7.55
2023-04-07T07:43:13.357Z,7.57
2023-04-07T07:44:09.973Z,7.55
2023-04-07T07:45:07.128Z,7.30
2023-04-07T07:46:04.263Z,6.93
2023-04-07T07:47:00.924Z,6.53
2023-04-07T07:47:57.580Z,7.00
2023-04-07T07:48:54.244Z,7.00
2023-04-07T07:49:51.137Z,7.38
2023-04-07T07:50:49.180Z,7.00
2023-04-07T07:51:47.125Z,7.15
2023-04-07T07:52:43.764Z,6.75
2023-04-07T07:53:40.398Z,6.63
2023-04-07T07:54:37.047Z,7.45
2023-04-07T07:55:33.611Z,7.15
2023-04-07T07:56:30.254Z,7.00
2023-04-07T07:57:26.979Z,7.43
2023-04-07T07:58:24.028Z,7.65
2023-04-07T07:59:21.637Z,7.10
2023-04-07T08:00:18.431Z,7.63
2023-04-07T08:01:15.046Z,6.90
2023-04-07T08:02:11.983Z,7.82
2023-04-07T08:03:08.768Z,7.53
2023-04-07T08:04:05.654Z,7.00
2023-04-07T08:05:02.360Z,7.07
2023-04-07T08:05:59.174Z,7.22
2023-04-07T08:06:56.166Z,6.45
2023-04-07T08:07:54.673Z,6.50
2023-04-07T08:08:51.500Z,6.68
2023-04-07T08:09:48.422Z,6.72
2023-04-07T08:10:45.027Z,6.68
2023-04-07T08:11:41.644Z,6.88
2023-04-07T08:12:38.246Z,6.97
2023-04-07T08:13:34.968Z,7.65
2023-04-07T08:14:31.799Z,7.50
2023-04-07T08:15:28.364Z,7.45
2023-04-07T08:16:26.922Z,7.03
2023-04-07T08:17:23.917Z,7.07
2023-04-07T08:18:20.742Z,7.00
2023-04-07T08:19:17.576Z,7.10
2023-04-07T08:20:14.229Z,7.05
2023-04-07T08:21:11.026Z,7.25
2023-04-07T08:22:07.672Z,6.90
2023-04-07T08:23:05.098Z,7.00
2023-04-07T08:24:01.790Z,7.53
2023-04-07T08:24:58.394Z,7.30
2023-04-07T08:25:54.978Z,6.80
2023-04-07T08:26:51.574Z,6.97
2023-04-07T08:27:48.170Z,6.53
2023-04-07T08:28:44.771Z,7.72
2023-04-07T08:29:41.465Z,7.28
2023-04-07T08:30:38.206Z,6.85
2023-04-07T08:31:34.859Z,7.63
2023-04-07T08:32:39.028Z,6.80
2023-04-07T08:33:35.660Z,7.13
2023-04-07T08:34:32.413Z,7.85
2023-04-07T08:35:28.989Z,7.15
2023-04-07T08:36:27.402Z,7.32
2023-04-07T08:37:24.031Z,7.40
2023-04-07T08:38:21.068Z,7.90
2023-04-07T08:39:17.963Z,7.60
2023-04-07T08:40:14.683Z,7.32
2023-04-07T08:41:13.841Z,7.45
2023-04-07T08:42:12.892Z,7.25
2023-04-07T08:43:10.660Z,8.45
2023-04-07T08:44:09.385Z,8.23
2023-04-07T08:45:07.549Z,7.85
2023-04-07T08:46:04.860Z,6.88
2023-04-07T08:47:03.455Z,7.15
2023-04-07T08:48:11.144Z,8.00
2023-04-07T08:49:10.325Z,8.23
2023-04-07T08:50:09.210Z,7.43
2023-04-07T08:51:08.490Z,7.30
2023-04-07T08:52:09.610Z,7.65
2023-04-07T08:53:08.938Z,6.90
2023-04-07T08:54:10.198Z,8.00
2023-04-07T08:55:08.567Z,16.33
2023-04-07T08:56:06.498Z,9.25
2023-04-07T08:57:03.959Z,7.53
2023-04-07T08:58:02.138Z,7.38
2023-04-07T08:58:59.130Z,7.43
2023-04-07T08:59:56.238Z,8.90
2023-04-07T09:00:53.312Z,7.55
2023-04-07T09:01:50.376Z,7.45
2023-04-07T09:02:49.424Z,7.07
2023-04-07T09:03:48.909Z,6.82
2023-04-07T09:04:46.195Z,7.53
2023-04-07T09:05:45.438Z,9.38
2023-04-07T09:06:42.030Z,9.15
2023-04-07T09:07:40.426Z,6.80
2023-04-07T09:08:37.233Z,7.40
2023-04-07T09:09:33.987Z,6.68
2023-04-07T09:10:31.312Z,7.10
2023-04-07T09:11:29.217Z,7.18
2023-04-07T09:12:27.261Z,7.15
2023-04-07T09:13:26.809Z,7.05
2023-04-07T09:14:23.639Z,7.22
2023-04-07T09:15:21.430Z,7.30
2023-04-07T09:16:18.809Z,7.32
2023-04-07T09:17:15.577Z,7.25
2023-04-07T09:18:12.443Z,6.97
2023-04-07T09:19:09.084Z,7.40
2023-04-07T09:20:06.094Z,7.80
2023-04-07T09:21:05.550Z,6.72
2023-04-07T09:22:02.182Z,7.57
2023-04-07T09:23:00.433Z,7.20
2023-04-07T09:23:57.015Z,6.63
2023-04-07T09:24:53.574Z,6.93
2023-04-07T09:25:50.230Z,7.32
2023-04-07T09:26:46.793Z,7.00
2023-04-07T09:27:57.301Z,7.07
2023-04-07T09:29:02.914Z,6.70
2023-04-07T09:30:14.813Z,7.10
2023-04-07T09:31:11.615Z,7.40
2023-04-07T09:32:08.946Z,7.57
2023-04-07T09:33:05.642Z,7.68
2023-04-07T09:34:05.492Z,7.65
2023-04-07T09:35:02.070Z,7.45
2023-04-07T09:35:58.707Z,6.95
2023-04-07T09:36:56.967Z,7.57
2023-04-07T09:38:07.916Z,7.28
2023-04-07T09:39:08.768Z,7.82
2023-04-07T09:40:05.970Z,8.20
2023-04-07T09:41:11.046Z,7.70
2023-04-07T09:42:07.984Z,7.68
2023-04-07T09:43:06.441Z,7.50
2023-04-07T09:44:03.202Z,7.47
2023-04-07T09:45:00.607Z,7.47
2023-04-07T09:46:20.122Z,7.43
2023-04-07T09:47:18.062Z,7.55
2023-04-07T09:48:22.037Z,7.28
2023-04-07T09:49:20.405Z,7.53
2023-04-07T09:50:31.646Z,7.43
2023-04-07T09:51:28.532Z,7.47
2023-04-07T09:52:54.658Z,7.45
2023-04-07T09:53:52.554Z,7.20
2023-04-07T09:54:49.458Z,7.63
2023-04-07T09:55:46.477Z,7.47
2023-04-07T09:56:44.731Z,7.53
2023-04-07T09:57:42.281Z,7.45
2023-04-07T09:58:40.921Z,7.75
2023-04-07T09:59:42.603Z,7.93
2023-04-07T10:00:39.653Z,7.68
2023-04-07T10:01:36.407Z,7.38
2023-04-07T10:02:33.267Z,6.93
2023-04-07T10:03:30.114Z,7.50
2023-04-07T10:04:27.771Z,7.47
2023-04-07T10:05:25.847Z,7.40
2023-04-07T10:06:25.503Z,6.95
2023-04-07T10:07:22.656Z,6.72
2023-04-07T10:08:20.047Z,7.35
2023-04-07T10:09:17.979Z,6.88
2023-04-07T10:10:14.631Z,7.38
2023-04-07T10:11:11.366Z,7.18
2023-04-07T10:12:07.984Z,7.70
2023-04-07T10:13:05.624Z,7.80
2023-04-07T10:14:02.583Z,7.45
2023-04-07T10:15:01.982Z,7.20
2023-04-07T10:15:59.986Z,7.07
2023-04-07T10:16:57.527Z,6.82
2023-04-07T10:17:56.901Z,7.15
2023-04-07T10:18:54.748Z,7.65
2023-04-07T10:19:51.612Z,7.55
2023-04-07T10:20:49.907Z,7.57
2023-04-07T10:21:48.361Z,8.00
2023-04-07T10:22:47.959Z,7.82
2023-04-07T10:23:50.044Z,8.18
2023-04-07T10:24:54.692Z,9.20
2023-04-07T10:25:55.000Z,8.50
2023-04-07T10:26:55.102Z,7.85
2023-04-07T10:27:54.700Z,8.07
2023-04-07T10:29:04.334Z,7.28
2023-04-07T10:30:04.382Z,7.55
2023-04-07T10:31:01.819Z,8.40
2023-04-07T10:32:01.765Z,8.00
2023-04-07T10:32:59.362Z,9.07
2023-04-07T10:33:57.096Z,8.50
2023-04-07T10:34:54.570Z,7.80
2023-04-07T10:36:07.982Z,8.07
2023-04-07T10:37:14.740Z,7.88
2023-04-07T10:38:16.856Z,7.45
2023-04-07T10:39:13.456Z,7.68
2023-04-07T10:40:19.329Z,7.53
2023-04-07T10:41:38.345Z,7.57
2023-04-07T10:42:37.672Z,7.47
2023-04-07T10:43:44.258Z,7.47
2023-04-07T10:44:40.797Z,6.97
2023-04-07T10:45:57.990Z,6.97
2023-04-07T10:47:05.924Z,8.10
2023-04-07T10:48:02.495Z,8.20
2023-04-07T10:49:12.070Z,7.65
2023-04-07T10:50:22.901Z,8.27
2023-04-07T10:51:19.700Z,8.40
2023-04-07T10:52:24.004Z,7.80
2023-04-07T10:53:20.611Z,7.72
2023-04-07T10:54:22.310Z,8.32
2023-04-07T10:55:40.780Z,8.43
2023-04-07T10:57:05.273Z,7.50
2023-04-07T10:58:24.370Z,7.97
2023-04-07T10:59:27.546Z,7.88
2023-04-07T11:00:24.617Z,8.10
2023-04-07T11:01:21.282Z,8.88
2023-04-07T11:02:39.633Z,8.40
2023-04-07T11:03:57.409Z,8.32
2023-04-07T11:04:54.219Z,7.75
2023-04-07T11:05:51.077Z,7.80
2023-04-07T11:06:48.402Z,8.13
2023-04-07T11:07:50.990Z,7.78
2023-04-07T11:08:49.490Z,7.68
2023-04-07T11:09:46.779Z,8.00
2023-04-07T11:10:47.976Z,7.93
2023-04-07T11:11:47.668Z,7.55
2023-04-07T11:12:44.277Z,8.10
2023-04-07T11:13:58.969Z,7.50
2023-04-07T11:14:56.740Z,7.45
2023-04-07T11:15:53.658Z,7.35
2023-04-07T11:16:50.324Z,7.53
2023-04-07T11:17:46.950Z,8.07
2023-04-07T11:18:44.798Z,6.90
2023-04-07T11:19:52.195Z,7.78
2023-04-07T11:20:52.797Z,8.00
2023-04-07T11:21:49.709Z,7.65
2023-04-07T11:23:00.253Z,7.45
2023-04-07T11:23:56.815Z,7.40
2023-04-07T11:24:53.732Z,8.02
2023-04-07T11:25:52.587Z,7.80
2023-04-07T11:26:50.686Z,7.55
2023-04-07T11:27:47.814Z,7.20
2023-04-07T11:28:49.106Z,7.38
2023-04-07T11:29:45.754Z,8.07
2023-04-07T11:31:00.746Z,7.40
2023-04-07T11:31:59.191Z,7.55
2023-04-07T11:32:57.229Z,7.72
2023-04-07T11:34:05.215Z,7.22
2023-04-07T11:35:06.910Z,7.22
2023-04-07T11:36:03.904Z,7.53
2023-04-07T11:37:24.585Z,7.45
2023-04-07T11:38:22.808Z,7.78
2023-04-07T11:39:23.551Z,8.23
2023-04-07T11:40:34.761Z,7.88
2023-04-07T11:41:32.980Z,8.00
2023-04-07T11:42:37.422Z,7.45
2023-04-07T11:43:34.015Z,7.47
2023-04-07T11:44:30.991Z,7.45
2023-04-07T11:45:27.699Z,7.40
2023-04-07T11:46:24.281Z,7.63
2023-04-07T11:47:21.632Z,7.03
2023-04-07T11:48:31.285Z,7.57
2023-04-07T11:49:28.888Z,6.93
2023-04-07T11:50:44.467Z,7.55
2023-04-07T11:51:44.642Z,7.95
2023-04-07T11:52:45.989Z,7.70
2023-04-07T11:53:42.749Z,7.65
2023-04-07T11:54:53.334Z,7.10
2023-04-07T11:55:50.006Z,7.30
2023-04-07T11:56:48.170Z,7.20
2023-04-07T11:57:44.906Z,7.55
2023-04-07T11:58:47.494Z,7.40
2023-04-07T12:01:08.987Z,7.07
2023-04-07T12:02:06.890Z,7.03
2023-04-07T12:03:12.513Z,7.82
2023-04-07T12:04:13.734Z,7.05
2023-04-07T12:05:10.964Z,6.90
2023-04-07T12:06:07.665Z,7.50
2023-04-07T12:07:09.347Z,7.35
2023-04-07T12:08:06.527Z,6.82
2023-04-07T12:09:04.059Z,7.20
2023-04-07T12:10:27.603Z,7.65
2023-04-07T12:11:27.299Z,6.53
2023-04-07T12:12:30.515Z,7.57
2023-04-07T12:13:27.132Z,7.10
2023-04-07T12:14:27.789Z,7.10
2023-04-07T12:15:24.577Z,6.60
2023-04-07T12:16:22.139Z,7.47
2023-04-07T12:17:27.400Z,7.05
2023-04-07T12:18:25.213Z,6.85
2023-04-07T12:19:24.338Z,7.07
2023-04-07T12:20:21.094Z,6.60
2023-04-07T12:21:18.707Z,7.50
2023-04-07T12:22:15.696Z,7.38
2023-04-07T12:23:12.248Z,7.80
2023-04-07T12:24:08.879Z,7.55
2023-04-07T12:25:05.957Z,7.72
2023-04-07T12:26:02.807Z,8.02
2023-04-07T12:26:59.810Z,7.63
2023-04-07T12:27:56.479Z,8.05
2023-04-07T12:28:53.130Z,8.57
2023-04-07T12:29:49.962Z,7.80
2023-04-07T12:30:46.648Z,7.88
2023-04-07T12:31:43.939Z,8.88
2023-04-07T12:32:40.713Z,8.10
2023-04-07T12:33:37.302Z,8.35
2023-04-07T12:34:34.622Z,8.70
2023-04-07T12:35:31.342Z,8.05
2023-04-07T12:36:28.101Z,8.48
2023-04-07T12:37:26.396Z,9.25
2023-04-07T12:38:22.904Z,9.10
2023-04-07T12:39:19.828Z,8.98
2023-04-07T12:40:17.889Z,9.00
2023-04-07T12:41:14.438Z,8.40
2023-04-07T12:42:12.074Z,8.60
2023-04-07T12:43:08.766Z,9.32
2023-04-07T12:44:06.012Z,8.63
2023-04-07T12:45:03.243Z,8.38
2023-04-07T12:45:59.935Z,8.38
2023-04-07T12:46:56.758Z,8.88
2023-04-07T12:47:53.412Z,8.55